Bert Mooney Airport
KBTM : now visible

Airfield :











YOU CAN JOIN US ON...

 
LOGIN :

Register | Disclaimer

   EN    FR    IT 

 









Legend :    VFR   Marginal VFR   IFR   Intensive IFR   Very Intensive IFR
Visi :
Ceiling :
>= 8 km
>= 3000ft
5 to 8 km
1000 to 3000 ft
1500m to 5 km
500 to 1000 ft
800 to 1500m
200 to 500 ft
< 800m
< 200 ft
Symbols :   Thunderstorms  Fog  Heavy snow  Heavy precipitations  Wind > 20 kt






- Airport Elevation : 5550 ft
- IATA code : BTM


KBTM - Bert Mooney

CURRENT METAR :
  • 190853Z AUTO 00000KT 10SM OVC007 M05/M06 A3040 RMK AO2 SLP341 I3000 T10501061 50001

EXPIRED METARs :
  • 190826Z AUTO 14003KT 10SM OVC007 M05/M07 A3041 RMK AO2 T10501067
  • 190753Z AUTO 00000KT 10SM OVC006 M05/M07 A3041 RMK AO2 SLP342 I1000 T10501067
  • 190653Z AUTO 00000KT 10SM BKN007 BKN065 M06/M07 A3041 RMK AO2 SLP344 T10561072 400001061
  • 190626Z AUTO 00000KT 10SM FEW009 SCT027 BKN075 M04/M07 A3039 RMK AO2 T10441072

TAF KBTM
Valid from the 19 at 07:00 until the 20 at 06:00 UTC


190705Z 1907/2006 15005KT P6SM BKN008 BKN060
FM191000 00000KT P6SM BKN070
FM191700 21005KT P6SM SCT150
KZLC FIR / North America



MET'MAP, your aeronautical weather chart ! - Copyright ORBIFLY December 2007 - Disclaimer

ORBIFLY MET'MAP TEAM :

Programming & Development : Alexandra Zaïnal
Concept & original design : Baudouin d'Aumeries
Assistance for programming : Marc-Olivier Méhu
Technical & hardware support : Manuel Goepfert

Contact : metmap@orbifly.com




SOURCES & CREDITS :

   NOAA       Earth
Advisory